createdAt,value
2024-01-31T00:00:10.066Z,6.80
2024-01-31T00:01:01.623Z,6.70
2024-01-31T00:01:53.461Z,6.67
2024-01-31T00:02:44.934Z,6.69
2024-01-31T00:03:36.353Z,7.02
2024-01-31T00:04:27.936Z,7.36
2024-01-31T00:05:19.717Z,6.79
2024-01-31T00:06:12.337Z,6.99
2024-01-31T00:07:04.054Z,7.06
2024-01-31T00:07:55.802Z,7.09
2024-01-31T00:08:47.196Z,7.56
2024-01-31T00:09:38.641Z,7.17
2024-01-31T00:10:30.188Z,7.33
2024-01-31T00:11:21.624Z,7.24
2024-01-31T00:12:13.051Z,7.18
2024-01-31T00:13:04.739Z,7.55
2024-01-31T00:13:57.116Z,7.82
2024-01-31T00:14:48.512Z,8.07
2024-01-31T00:15:40.118Z,8.35
2024-01-31T00:16:31.594Z,8.26
2024-01-31T00:17:23.059Z,8.06
2024-01-31T00:18:14.576Z,8.35
2024-01-31T00:19:07.438Z,8.09
2024-01-31T00:19:58.977Z,8.50
2024-01-31T00:20:50.440Z,8.39
2024-01-31T00:21:43.093Z,7.92
2024-01-31T00:22:34.672Z,7.57
2024-01-31T00:23:26.329Z,7.41
2024-01-31T00:24:17.772Z,7.40
2024-01-31T00:25:09.379Z,7.76
2024-01-31T00:26:00.880Z,7.65
2024-01-31T00:26:52.323Z,7.47
2024-01-31T00:27:43.766Z,7.93
2024-01-31T00:28:35.358Z,7.61
2024-01-31T00:29:26.899Z,7.65
2024-01-31T00:30:18.348Z,7.63
2024-01-31T00:31:12.576Z,7.64
2024-01-31T00:32:04.590Z,8.27
2024-01-31T00:32:56.099Z,8.27
2024-01-31T00:33:47.857Z,8.39
2024-01-31T00:34:39.400Z,8.41
2024-01-31T00:35:31.103Z,7.94
2024-01-31T00:36:22.612Z,8.04
2024-01-31T00:37:14.095Z,8.65
2024-01-31T00:38:05.496Z,8.58
2024-01-31T00:38:57.038Z,8.60
2024-01-31T00:39:48.560Z,8.56
2024-01-31T00:40:40.008Z,8.97
2024-01-31T00:41:32.331Z,9.08
2024-01-31T00:42:23.713Z,9.34
2024-01-31T00:43:15.234Z,9.05
2024-01-31T00:44:06.754Z,9.40
2024-01-31T00:44:58.146Z,9.86
2024-01-31T00:45:49.865Z,10.16
2024-01-31T00:46:42.770Z,10.10
2024-01-31T00:47:34.492Z,9.94
2024-01-31T00:48:26.078Z,9.93
2024-01-31T00:49:20.641Z,10.18
2024-01-31T00:50:14.345Z,10.19
2024-01-31T00:51:11.665Z,10.36
2024-01-31T00:52:03.245Z,10.93
2024-01-31T00:52:54.936Z,10.38
2024-01-31T00:53:46.437Z,10.47
2024-01-31T00:54:37.819Z,11.26
2024-01-31T00:55:29.268Z,10.67
2024-01-31T00:56:20.666Z,10.49
2024-01-31T00:57:12.048Z,10.66
2024-01-31T00:58:03.601Z,10.98
2024-01-31T00:58:55.044Z,10.92
2024-01-31T00:59:46.486Z,10.56
2024-01-31T01:00:38.026Z,10.83
2024-01-31T01:01:29.588Z,11.01
2024-01-31T01:02:21.063Z,11.35
2024-01-31T01:03:12.658Z,11.26
2024-01-31T01:04:04.440Z,11.15
2024-01-31T01:04:56.188Z,11.54
2024-01-31T01:05:47.626Z,10.73
2024-01-31T01:06:42.776Z,11.35
2024-01-31T01:07:34.414Z,12.06
2024-01-31T01:08:26.021Z,12.47
2024-01-31T01:09:17.418Z,12.07
2024-01-31T01:10:16.894Z,12.34
2024-01-31T01:11:08.386Z,12.18
2024-01-31T01:11:59.816Z,12.43
2024-01-31T01:12:51.224Z,12.02
2024-01-31T01:13:42.806Z,12.03
2024-01-31T01:14:34.221Z,12.40
2024-01-31T01:15:25.903Z,12.08
2024-01-31T01:16:17.417Z,12.26
2024-01-31T01:17:08.881Z,12.37
2024-01-31T01:18:00.422Z,12.23
2024-01-31T01:18:52.220Z,12.13
2024-01-31T01:19:43.696Z,12.86
2024-01-31T01:20:35.232Z,12.17
2024-01-31T01:21:26.692Z,12.32
2024-01-31T01:22:18.098Z,12.52
2024-01-31T01:23:09.497Z,12.82
2024-01-31T01:24:00.930Z,12.44
2024-01-31T01:24:53.671Z,12.43
2024-01-31T01:25:45.402Z,13.13
2024-01-31T01:26:40.481Z,12.46
2024-01-31T01:27:31.871Z,12.87
2024-01-31T01:28:23.553Z,12.53
2024-01-31T01:29:15.002Z,12.87
2024-01-31T01:30:07.109Z,12.81
2024-01-31T01:30:58.616Z,13.00
2024-01-31T01:31:50.159Z,12.27
2024-01-31T01:32:41.724Z,12.44
2024-01-31T01:33:33.231Z,12.48
2024-01-31T01:34:24.854Z,12.72
2024-01-31T01:35:16.768Z,12.84
2024-01-31T01:36:08.239Z,12.49
2024-01-31T01:36:59.753Z,13.48
2024-01-31T01:37:51.235Z,13.30
2024-01-31T01:38:42.634Z,12.12
2024-01-31T01:39:35.570Z,12.92
2024-01-31T01:40:26.994Z,12.55
2024-01-31T01:41:18.558Z,11.72
2024-01-31T01:42:09.982Z,12.26
2024-01-31T01:43:01.430Z,12.66
2024-01-31T01:43:52.898Z,12.80
2024-01-31T01:44:47.988Z,12.42
2024-01-31T01:45:39.379Z,12.81
2024-01-31T01:46:36.768Z,12.58
2024-01-31T01:47:28.575Z,12.11
2024-01-31T01:48:20.422Z,12.26
2024-01-31T01:49:15.848Z,12.61
2024-01-31T01:50:09.634Z,12.62
2024-01-31T01:51:01.729Z,13.05
2024-01-31T01:51:54.476Z,12.38
2024-01-31T01:52:46.641Z,12.75
2024-01-31T01:53:38.665Z,13.23
2024-01-31T01:54:32.097Z,13.10
2024-01-31T01:55:23.744Z,12.82
2024-01-31T01:56:15.743Z,13.12
2024-01-31T01:57:09.441Z,13.21
2024-01-31T01:58:01.505Z,13.22
2024-01-31T01:58:54.764Z,12.62
2024-01-31T01:59:46.724Z,13.57
2024-01-31T02:00:39.850Z,13.55
2024-01-31T02:01:31.691Z,13.42
2024-01-31T02:02:23.230Z,13.59
2024-01-31T02:03:18.345Z,13.67
2024-01-31T02:04:10.213Z,14.20
2024-01-31T02:05:02.946Z,13.59
2024-01-31T02:05:57.001Z,13.30
2024-01-31T02:06:49.723Z,13.44
2024-01-31T02:07:41.537Z,14.10
2024-01-31T02:08:33.262Z,14.52
2024-01-31T02:09:24.987Z,13.73
2024-01-31T02:10:16.624Z,13.82
2024-01-31T02:11:08.230Z,13.40
2024-01-31T02:11:59.929Z,12.73
2024-01-31T02:12:51.473Z,12.78
2024-01-31T02:13:42.981Z,13.64
2024-01-31T02:14:34.382Z,13.66
2024-01-31T02:15:25.824Z,13.71
2024-01-31T02:16:17.352Z,13.67
2024-01-31T02:17:08.763Z,13.96
2024-01-31T02:18:00.222Z,14.88
2024-01-31T02:18:51.724Z,13.87
2024-01-31T02:19:43.334Z,14.06
2024-01-31T02:20:36.164Z,13.92
2024-01-31T02:21:29.351Z,14.60
2024-01-31T02:22:21.073Z,14.46
2024-01-31T02:23:12.669Z,14.21
2024-01-31T02:24:04.115Z,15.06
2024-01-31T02:24:55.505Z,14.88
2024-01-31T02:25:47.537Z,14.49
2024-01-31T02:26:39.250Z,14.67
2024-01-31T02:27:30.744Z,14.08
2024-01-31T02:28:22.193Z,15.13
2024-01-31T02:29:13.616Z,14.27
2024-01-31T02:30:06.514Z,14.59
2024-01-31T02:30:58.041Z,15.24
2024-01-31T02:31:49.581Z,14.97
2024-01-31T02:32:41.053Z,14.86
2024-01-31T02:33:32.568Z,15.88
2024-01-31T02:34:24.071Z,14.95
2024-01-31T02:35:15.844Z,15.32
2024-01-31T02:36:07.430Z,14.72
2024-01-31T02:36:59.097Z,15.63
2024-01-31T02:37:50.513Z,16.08
2024-01-31T02:38:41.969Z,16.24
2024-01-31T02:39:34.433Z,15.85
2024-01-31T02:40:25.935Z,16.27
2024-01-31T02:41:17.383Z,16.23
2024-01-31T02:42:08.896Z,15.83
2024-01-31T02:43:00.954Z,16.13
2024-01-31T02:43:52.566Z,16.00
2024-01-31T02:44:44.005Z,15.73
2024-01-31T02:45:37.017Z,15.74
2024-01-31T02:46:28.493Z,16.78
2024-01-31T02:47:19.917Z,16.63
2024-01-31T02:48:11.415Z,16.76
2024-01-31T02:49:03.530Z,16.13
2024-01-31T02:49:55.134Z,16.80
2024-01-31T02:50:46.642Z,17.33
2024-01-31T02:51:38.028Z,16.99
2024-01-31T02:52:29.694Z,16.65
2024-01-31T02:53:21.220Z,17.95
2024-01-31T02:54:12.692Z,17.19
2024-01-31T02:55:05.150Z,17.74
2024-01-31T02:55:56.567Z,17.41
2024-01-31T02:56:48.093Z,17.60
2024-01-31T02:57:41.589Z,17.40
2024-01-31T02:58:33.439Z,18.03
2024-01-31T02:59:24.950Z,18.74
2024-01-31T03:00:16.702Z,17.73
2024-01-31T03:01:08.668Z,17.29
2024-01-31T03:02:00.265Z,18.06
2024-01-31T03:02:51.854Z,18.56
2024-01-31T03:03:43.292Z,17.16
2024-01-31T03:04:34.828Z,18.75
2024-01-31T03:05:26.368Z,18.94
2024-01-31T03:06:17.844Z,18.08
2024-01-31T03:07:09.446Z,18.01
2024-01-31T03:08:00.919Z,18.11
2024-01-31T03:08:52.320Z,18.15
2024-01-31T03:09:43.759Z,17.98
2024-01-31T03:10:35.179Z,17.04
2024-01-31T03:11:26.770Z,17.67
2024-01-31T03:12:18.221Z,18.19
2024-01-31T03:13:09.663Z,18.28
2024-01-31T03:14:01.157Z,19.36
2024-01-31T03:14:52.731Z,18.51
2024-01-31T03:15:44.179Z,18.26
2024-01-31T03:16:40.663Z,19.08
2024-01-31T03:17:36.745Z,19.10
2024-01-31T03:18:28.324Z,18.73
2024-01-31T03:19:19.802Z,18.25
2024-01-31T03:20:12.185Z,18.66
2024-01-31T03:21:03.888Z,19.21
2024-01-31T03:21:56.405Z,20.20
2024-01-31T03:22:47.869Z,18.94
2024-01-31T03:23:39.262Z,18.86
2024-01-31T03:24:30.778Z,19.72
2024-01-31T03:25:22.218Z,19.53
2024-01-31T03:26:13.676Z,18.04
2024-01-31T03:27:05.706Z,18.67
2024-01-31T03:27:57.152Z,19.05
2024-01-31T03:28:48.600Z,18.36
2024-01-31T03:29:40.052Z,18.82
2024-01-31T03:30:31.477Z,18.43
2024-01-31T03:31:22.996Z,17.88
2024-01-31T03:32:14.533Z,18.14
2024-01-31T03:33:06.072Z,18.49
2024-01-31T03:33:57.620Z,18.49
2024-01-31T03:34:49.188Z,17.61
2024-01-31T03:35:40.634Z,17.58
2024-01-31T03:36:33.677Z,17.77
2024-01-31T03:37:25.327Z,17.38
2024-01-31T03:38:16.791Z,17.82
2024-01-31T03:39:08.189Z,17.98
2024-01-31T03:39:59.843Z,17.72
2024-01-31T03:40:51.510Z,18.65
2024-01-31T03:41:46.824Z,18.59
2024-01-31T03:42:38.361Z,17.45
2024-01-31T03:43:29.781Z,17.69
2024-01-31T03:44:21.273Z,17.41
2024-01-31T03:45:12.674Z,17.96
2024-01-31T03:46:07.914Z,17.67
2024-01-31T03:46:59.397Z,17.56
2024-01-31T03:47:52.425Z,18.41
2024-01-31T03:48:43.839Z,17.67
2024-01-31T03:49:35.220Z,17.43
2024-01-31T03:50:28.352Z,17.86
2024-01-31T03:51:21.538Z,18.38
2024-01-31T03:52:13.224Z,19.02
2024-01-31T03:53:04.835Z,18.23
2024-01-31T03:53:56.226Z,18.72
2024-01-31T03:54:47.623Z,18.23
2024-01-31T03:55:39.130Z,17.48
2024-01-31T03:56:30.589Z,18.01
2024-01-31T03:57:22.013Z,17.62
2024-01-31T03:58:13.430Z,18.56
2024-01-31T03:59:04.905Z,18.77
2024-01-31T03:59:56.438Z,18.66
2024-01-31T04:00:48.164Z,18.18
2024-01-31T04:01:39.767Z,17.75
2024-01-31T04:02:31.342Z,17.85
2024-01-31T04:03:22.794Z,17.52
2024-01-31T04:04:14.290Z,17.66
2024-01-31T04:05:06.243Z,18.02
2024-01-31T04:05:58.276Z,16.77
2024-01-31T04:06:49.862Z,17.93
2024-01-31T04:07:46.371Z,17.31
2024-01-31T04:08:39.103Z,18.19
2024-01-31T04:09:30.558Z,17.95
2024-01-31T04:10:22.006Z,16.41
2024-01-31T04:11:13.528Z,16.93
2024-01-31T04:12:05.218Z,17.09
2024-01-31T04:12:56.664Z,17.09
2024-01-31T04:13:48.166Z,16.08
2024-01-31T04:14:39.803Z,15.94
2024-01-31T04:15:31.310Z,16.04
2024-01-31T04:16:22.799Z,15.78
2024-01-31T04:17:14.176Z,15.71
2024-01-31T04:18:06.088Z,15.24
2024-01-31T04:18:57.675Z,15.72
2024-01-31T04:19:50.511Z,16.03
2024-01-31T04:20:42.291Z,16.11
2024-01-31T04:21:33.740Z,15.26
2024-01-31T04:22:25.283Z,15.31
2024-01-31T04:23:17.258Z,15.48
2024-01-31T04:24:08.701Z,15.20
2024-01-31T04:25:00.207Z,14.93
2024-01-31T04:25:51.763Z,15.78
2024-01-31T04:26:46.412Z,16.39
2024-01-31T04:27:37.838Z,15.93
2024-01-31T04:28:29.285Z,15.73
2024-01-31T04:29:21.163Z,16.15
2024-01-31T04:30:12.900Z,15.77
2024-01-31T04:31:04.638Z,15.62
2024-01-31T04:31:57.448Z,15.72
2024-01-31T04:32:49.042Z,16.27
2024-01-31T04:33:41.084Z,14.58
2024-01-31T04:34:32.656Z,14.25
2024-01-31T04:35:24.224Z,15.27
2024-01-31T04:36:15.615Z,15.05
2024-01-31T04:37:07.386Z,15.08
2024-01-31T04:37:58.831Z,15.14
2024-01-31T04:38:50.344Z,13.75
2024-01-31T04:39:41.750Z,14.49
2024-01-31T04:40:33.149Z,14.32
2024-01-31T04:41:24.598Z,13.46
2024-01-31T04:42:15.984Z,13.82
2024-01-31T04:43:07.418Z,13.25
2024-01-31T04:43:58.921Z,14.72
2024-01-31T04:44:50.334Z,13.34
2024-01-31T04:45:41.719Z,13.98
2024-01-31T04:46:33.141Z,14.99
2024-01-31T04:47:26.833Z,15.12
2024-01-31T04:48:18.517Z,13.89
2024-01-31T04:49:10.226Z,13.96
2024-01-31T04:50:01.941Z,13.92
2024-01-31T04:50:53.526Z,14.28
2024-01-31T04:51:44.974Z,14.46
2024-01-31T04:52:37.330Z,15.09
2024-01-31T04:53:28.817Z,14.44
2024-01-31T04:54:20.463Z,13.66
2024-01-31T04:55:12.237Z,13.84
2024-01-31T04:56:08.053Z,14.80
2024-01-31T04:56:59.540Z,14.93
2024-01-31T04:57:50.982Z,15.20
2024-01-31T04:58:42.500Z,15.63
2024-01-31T04:59:40.966Z,15.85
2024-01-31T05:00:32.479Z,15.74
2024-01-31T05:01:23.993Z,14.94
2024-01-31T05:02:15.481Z,14.76
2024-01-31T05:03:06.954Z,15.98
2024-01-31T05:03:58.868Z,15.43
2024-01-31T05:04:50.501Z,16.55
2024-01-31T05:05:42.100Z,16.57
2024-01-31T05:06:33.721Z,17.08
2024-01-31T05:07:25.202Z,16.81
2024-01-31T05:08:16.686Z,17.80
2024-01-31T05:09:09.863Z,18.32
2024-01-31T05:10:01.345Z,17.59
2024-01-31T05:10:52.806Z,18.02
2024-01-31T05:11:44.243Z,18.08
2024-01-31T05:12:35.758Z,18.06
2024-01-31T05:13:27.221Z,17.88
2024-01-31T05:14:19.227Z,18.36
2024-01-31T05:15:10.797Z,18.64
2024-01-31T05:16:02.331Z,18.49
2024-01-31T05:16:53.816Z,17.90
2024-01-31T05:17:45.223Z,17.68
2024-01-31T05:18:37.227Z,17.96
2024-01-31T05:19:31.015Z,18.59
2024-01-31T05:20:22.912Z,18.08
2024-01-31T05:21:14.351Z,18.52
2024-01-31T05:22:05.737Z,18.91
2024-01-31T05:22:57.565Z,17.90
2024-01-31T05:23:49.034Z,18.50
2024-01-31T05:24:40.852Z,18.24
2024-01-31T05:25:32.306Z,17.64
2024-01-31T05:26:23.794Z,18.18
2024-01-31T05:27:15.478Z,18.10
2024-01-31T05:28:06.957Z,18.01
2024-01-31T05:28:58.347Z,17.76
2024-01-31T05:29:49.733Z,17.45
2024-01-31T05:30:41.172Z,17.51
2024-01-31T05:31:33.212Z,17.52
2024-01-31T05:32:24.734Z,17.40
2024-01-31T05:33:16.264Z,17.81
2024-01-31T05:34:08.306Z,17.32
2024-01-31T05:34:59.944Z,17.30
2024-01-31T05:35:51.445Z,17.02
2024-01-31T05:36:42.856Z,17.54
2024-01-31T05:37:35.336Z,18.53
2024-01-31T05:38:27.878Z,18.15
2024-01-31T05:39:19.280Z,17.74
2024-01-31T05:40:12.909Z,17.72
2024-01-31T05:41:04.575Z,18.21
2024-01-31T05:41:56.104Z,17.46
2024-01-31T05:42:49.247Z,17.60
2024-01-31T05:43:41.428Z,18.61
2024-01-31T05:44:33.058Z,18.17
2024-01-31T05:45:25.152Z,19.29
2024-01-31T05:46:18.331Z,17.75
2024-01-31T05:47:09.809Z,17.49
2024-01-31T05:48:03.035Z,18.33
2024-01-31T05:48:54.684Z,18.45
2024-01-31T05:49:46.564Z,18.86
2024-01-31T05:50:40.889Z,18.39
2024-01-31T05:51:33.308Z,18.83
2024-01-31T05:52:24.928Z,18.86
2024-01-31T05:53:16.411Z,18.71
2024-01-31T05:54:07.858Z,18.27
2024-01-31T05:54:59.379Z,18.36
2024-01-31T05:55:50.913Z,18.34
2024-01-31T05:56:42.488Z,18.50
2024-01-31T05:57:34.720Z,19.36
2024-01-31T05:58:26.240Z,19.32
2024-01-31T05:59:17.836Z,19.04
2024-01-31T06:00:14.224Z,19.54
2024-01-31T06:01:06.810Z,19.22
2024-01-31T06:01:58.627Z,19.31
2024-01-31T06:02:53.546Z,19.57
2024-01-31T06:03:48.310Z,18.93
2024-01-31T06:04:41.565Z,19.48
2024-01-31T06:05:33.507Z,21.67
2024-01-31T06:06:24.980Z,21.13
2024-01-31T06:07:16.470Z,21.26
2024-01-31T06:08:08.661Z,20.65
2024-01-31T06:09:00.154Z,23.18
2024-01-31T06:09:51.531Z,22.89
2024-01-31T06:10:43.001Z,21.89
2024-01-31T06:11:34.458Z,22.57
2024-01-31T06:12:26.005Z,23.37
2024-01-31T06:13:17.451Z,24.16
2024-01-31T06:14:09.148Z,23.63
2024-01-31T06:15:00.569Z,22.92
2024-01-31T06:15:51.999Z,22.62
2024-01-31T06:16:43.467Z,23.01
2024-01-31T06:17:35.107Z,22.92
2024-01-31T06:18:26.599Z,21.81
2024-01-31T06:19:18.161Z,23.00
2024-01-31T06:20:10.769Z,22.33
2024-01-31T06:21:04.049Z,22.37
2024-01-31T06:21:55.679Z,22.51
2024-01-31T06:22:47.172Z,21.98
2024-01-31T06:23:38.945Z,22.42
2024-01-31T06:24:30.324Z,23.25
2024-01-31T06:25:22.008Z,23.00
2024-01-31T06:26:13.460Z,22.99
2024-01-31T06:27:05.035Z,22.78
2024-01-31T06:27:56.521Z,22.70
2024-01-31T06:28:49.591Z,23.47
2024-01-31T06:29:41.153Z,24.69
2024-01-31T06:30:41.377Z,23.96
2024-01-31T06:31:36.943Z,23.57
2024-01-31T06:32:33.296Z,23.40
2024-01-31T06:33:28.772Z,24.01
2024-01-31T06:34:20.610Z,23.37
2024-01-31T06:35:12.211Z,22.89
2024-01-31T06:36:04.085Z,23.70
2024-01-31T06:36:58.375Z,23.28
2024-01-31T06:37:51.104Z,24.79
2024-01-31T06:38:42.478Z,24.67
2024-01-31T06:39:33.908Z,24.25
2024-01-31T06:40:25.421Z,25.03
2024-01-31T06:41:17.691Z,24.70
2024-01-31T06:42:09.076Z,24.59
2024-01-31T06:43:00.876Z,23.99
2024-01-31T06:43:52.445Z,22.57
2024-01-31T06:44:43.850Z,23.69
2024-01-31T06:45:35.298Z,25.34
2024-01-31T06:46:26.738Z,25.28
2024-01-31T06:47:18.195Z,23.27
2024-01-31T06:48:10.915Z,23.06
2024-01-31T06:49:02.702Z,24.66
2024-01-31T06:49:54.201Z,24.68
2024-01-31T06:50:47.918Z,23.13
2024-01-31T06:51:39.578Z,22.92
2024-01-31T06:52:31.014Z,22.79
2024-01-31T06:53:22.567Z,22.91
2024-01-31T06:54:15.303Z,22.55
2024-01-31T06:55:06.945Z,22.80
2024-01-31T06:56:00.719Z,22.02
2024-01-31T06:56:52.145Z,24.23
2024-01-31T06:57:43.736Z,23.87
2024-01-31T06:58:35.365Z,23.78
2024-01-31T06:59:26.824Z,22.69
2024-01-31T07:00:18.554Z,23.16
2024-01-31T07:01:10.112Z,23.45
2024-01-31T07:02:01.793Z,23.14
2024-01-31T07:02:54.189Z,23.46
2024-01-31T07:03:46.553Z,22.99
2024-01-31T07:04:38.974Z,21.95
2024-01-31T07:05:30.536Z,21.95
2024-01-31T07:06:22.148Z,23.21
2024-01-31T07:07:13.823Z,23.32
2024-01-31T07:08:05.706Z,21.37
2024-01-31T07:08:57.178Z,21.32
2024-01-31T07:09:48.580Z,21.50
2024-01-31T07:10:40.026Z,21.94
2024-01-31T07:11:31.588Z,22.00
2024-01-31T07:12:23.012Z,23.50
2024-01-31T07:13:14.440Z,23.49
2024-01-31T07:14:05.875Z,22.54
2024-01-31T07:14:57.426Z,22.73
2024-01-31T07:15:49.024Z,23.28
2024-01-31T07:16:40.773Z,23.87
2024-01-31T07:17:33.004Z,23.34
2024-01-31T07:18:24.586Z,22.21
2024-01-31T07:19:16.159Z,23.40
2024-01-31T07:20:09.179Z,22.08
2024-01-31T07:21:00.688Z,22.79
2024-01-31T07:21:52.145Z,23.91
2024-01-31T07:22:43.946Z,22.43
2024-01-31T07:23:36.301Z,23.80
2024-01-31T07:24:30.093Z,23.70
2024-01-31T07:25:21.986Z,22.41
2024-01-31T07:26:24.978Z,22.35
2024-01-31T07:27:16.388Z,23.22
2024-01-31T07:28:08.674Z,24.13
2024-01-31T07:29:00.802Z,24.45
2024-01-31T07:29:52.247Z,23.89
2024-01-31T07:30:43.655Z,24.11
2024-01-31T07:31:35.495Z,23.59
2024-01-31T07:32:26.902Z,23.62
2024-01-31T07:33:19.028Z,23.57
2024-01-31T07:34:10.587Z,22.36
2024-01-31T07:35:02.223Z,23.57
2024-01-31T07:35:53.870Z,22.17
2024-01-31T07:36:45.308Z,22.52
2024-01-31T07:37:40.129Z,22.64
2024-01-31T07:38:31.636Z,22.56
2024-01-31T07:39:23.007Z,22.88
2024-01-31T07:40:14.759Z,24.35
2024-01-31T07:41:07.141Z,22.78
2024-01-31T07:41:58.553Z,22.45
2024-01-31T07:42:50.047Z,22.92
2024-01-31T07:43:43.811Z,23.97
2024-01-31T07:44:35.689Z,24.99
2024-01-31T07:45:28.171Z,23.89
2024-01-31T07:46:19.948Z,24.71
2024-01-31T07:47:11.492Z,24.95
2024-01-31T07:48:03.072Z,24.19
2024-01-31T07:48:54.632Z,23.42
2024-01-31T07:49:46.656Z,22.13
2024-01-31T07:50:38.360Z,22.24
2024-01-31T07:51:29.949Z,22.88
2024-01-31T07:52:21.417Z,22.28
2024-01-31T07:53:12.848Z,23.36
2024-01-31T07:54:04.388Z,22.81
2024-01-31T07:54:56.271Z,23.08
2024-01-31T07:55:47.883Z,22.39
2024-01-31T07:56:39.371Z,22.11
2024-01-31T07:57:30.900Z,21.87
2024-01-31T07:58:22.599Z,21.45
2024-01-31T07:59:14.062Z,22.04
2024-01-31T08:00:07.574Z,20.90
2024-01-31T08:01:00.430Z,21.29
2024-01-31T08:01:52.726Z,21.54
2024-01-31T08:02:44.194Z,21.12
2024-01-31T08:03:39.966Z,20.90
2024-01-31T08:04:31.522Z,21.57
2024-01-31T08:05:22.948Z,20.51
2024-01-31T08:06:14.501Z,21.65
2024-01-31T08:07:05.929Z,22.21
2024-01-31T08:07:57.680Z,22.03
2024-01-31T08:08:49.208Z,22.51
2024-01-31T08:09:40.965Z,22.86
2024-01-31T08:10:32.350Z,21.51
2024-01-31T08:11:23.873Z,21.21
2024-01-31T08:12:15.318Z,22.13
2024-01-31T08:13:06.818Z,21.72
2024-01-31T08:13:58.267Z,21.24
2024-01-31T08:14:50.003Z,21.54
2024-01-31T08:15:41.494Z,21.24
2024-01-31T08:16:32.971Z,20.37
2024-01-31T08:17:24.458Z,20.40
2024-01-31T08:18:15.930Z,21.19
2024-01-31T08:19:07.683Z,21.68
2024-01-31T08:19:59.335Z,22.40
2024-01-31T08:20:50.756Z,22.00
2024-01-31T08:21:42.782Z,21.45
2024-01-31T08:22:36.861Z,20.19
2024-01-31T08:23:30.459Z,20.71
2024-01-31T08:24:22.115Z,19.80
2024-01-31T08:25:13.578Z,20.35
2024-01-31T08:26:06.468Z,21.55
2024-01-31T08:26:57.928Z,21.36
2024-01-31T08:27:50.414Z,20.37
2024-01-31T08:28:41.922Z,21.06
2024-01-31T08:29:33.430Z,21.54
2024-01-31T08:30:24.893Z,21.85
2024-01-31T08:31:16.458Z,21.17
2024-01-31T08:32:08.024Z,21.38
2024-01-31T08:33:00.831Z,22.25
2024-01-31T08:33:52.428Z,21.64
2024-01-31T08:34:44.028Z,21.41
2024-01-31T08:35:35.641Z,21.02
2024-01-31T08:36:27.160Z,21.27
2024-01-31T08:37:19.169Z,21.11
2024-01-31T08:38:10.690Z,21.68
2024-01-31T08:39:02.524Z,22.56
2024-01-31T08:39:53.956Z,20.99
2024-01-31T08:40:45.398Z,20.70
2024-01-31T08:41:37.277Z,20.73
2024-01-31T08:42:30.052Z,19.71
2024-01-31T08:43:21.639Z,20.34
2024-01-31T08:44:13.222Z,19.95
2024-01-31T08:45:05.285Z,20.02
2024-01-31T08:45:56.760Z,19.95
2024-01-31T08:46:58.716Z,19.72
2024-01-31T08:47:59.955Z,19.80
2024-01-31T08:48:51.421Z,19.46
2024-01-31T08:49:42.958Z,20.56
2024-01-31T08:50:34.657Z,19.22
2024-01-31T08:51:26.251Z,18.79
2024-01-31T08:52:17.953Z,18.43
2024-01-31T08:53:09.557Z,18.11
2024-01-31T08:54:01.148Z,18.65
2024-01-31T08:54:52.718Z,18.11
2024-01-31T08:55:52.200Z,18.04
2024-01-31T08:56:50.034Z,18.27
2024-01-31T08:57:41.563Z,18.00
2024-01-31T08:58:33.022Z,18.70
2024-01-31T08:59:24.656Z,18.41
2024-01-31T09:00:16.798Z,18.40
2024-01-31T09:01:08.273Z,17.21
2024-01-31T09:01:59.859Z,18.69
2024-01-31T09:02:51.422Z,17.84
2024-01-31T09:03:42.832Z,17.65
2024-01-31T09:04:34.845Z,17.72
2024-01-31T09:05:26.361Z,17.11
2024-01-31T09:06:17.995Z,17.73
2024-01-31T09:07:09.662Z,17.30
2024-01-31T09:08:01.286Z,17.97
2024-01-31T09:08:52.761Z,17.07
2024-01-31T09:09:44.145Z,16.57
2024-01-31T09:10:35.697Z,17.57
2024-01-31T09:11:27.366Z,17.43
2024-01-31T09:12:18.841Z,17.34
2024-01-31T09:13:10.789Z,18.69
2024-01-31T09:14:02.374Z,18.01
2024-01-31T09:14:53.880Z,17.63
2024-01-31T09:15:45.334Z,17.94
2024-01-31T09:16:36.887Z,17.98
2024-01-31T09:17:28.503Z,19.01
2024-01-31T09:18:19.997Z,19.19
2024-01-31T09:19:11.768Z,18.76
2024-01-31T09:20:03.617Z,19.00
2024-01-31T09:20:55.412Z,18.14
2024-01-31T09:21:46.848Z,17.23
2024-01-31T09:22:40.111Z,18.03
2024-01-31T09:23:31.875Z,17.96
2024-01-31T09:24:23.335Z,17.87
2024-01-31T09:25:16.281Z,19.16
2024-01-31T09:26:09.666Z,23.23
2024-01-31T09:27:01.963Z,27.23
2024-01-31T09:27:53.452Z,28.41
2024-01-31T09:28:45.092Z,28.18
2024-01-31T09:29:36.707Z,25.74
2024-01-31T09:30:28.212Z,22.83
2024-01-31T09:31:24.662Z,22.12
2024-01-31T09:32:16.379Z,22.28
2024-01-31T09:33:07.791Z,21.43
2024-01-31T09:33:59.438Z,21.11
2024-01-31T09:34:52.889Z,23.07
2024-01-31T09:35:46.879Z,21.62
2024-01-31T09:36:38.333Z,21.34
2024-01-31T09:37:32.042Z,20.68
2024-01-31T09:38:26.608Z,20.38
2024-01-31T09:39:18.145Z,19.69
2024-01-31T09:40:11.489Z,19.31
2024-01-31T09:41:03.528Z,18.61
2024-01-31T09:41:55.611Z,17.65
2024-01-31T09:42:47.536Z,19.25
2024-01-31T09:43:39.293Z,19.19
2024-01-31T09:44:31.751Z,19.03
2024-01-31T09:45:24.092Z,18.51
2024-01-31T09:46:18.627Z,19.08
2024-01-31T09:47:12.203Z,19.61
2024-01-31T09:48:03.951Z,18.92
2024-01-31T09:48:55.684Z,17.57
2024-01-31T09:49:47.335Z,18.37
2024-01-31T09:50:38.948Z,18.47
2024-01-31T09:51:31.192Z,19.32
2024-01-31T09:52:28.421Z,18.75
2024-01-31T09:53:20.405Z,18.16
2024-01-31T09:54:11.884Z,19.00
2024-01-31T09:55:05.790Z,18.60
2024-01-31T09:55:57.688Z,17.91
2024-01-31T09:56:49.234Z,18.01
2024-01-31T09:57:43.177Z,18.03
2024-01-31T09:58:34.690Z,17.44
2024-01-31T09:59:26.351Z,18.41
2024-01-31T10:00:18.685Z,19.70
2024-01-31T10:01:17.853Z,18.94
2024-01-31T10:02:17.269Z,18.79
2024-01-31T10:03:10.704Z,18.88
2024-01-31T10:04:02.490Z,18.32
2024-01-31T10:04:54.146Z,17.31
2024-01-31T10:05:45.961Z,17.72
2024-01-31T10:06:37.686Z,18.44
2024-01-31T10:07:31.613Z,19.08
2024-01-31T10:08:23.177Z,19.84
2024-01-31T10:09:14.674Z,19.81
2024-01-31T10:10:07.213Z,19.86
2024-01-31T10:10:58.961Z,20.32
2024-01-31T10:11:50.545Z,20.61
2024-01-31T10:12:43.014Z,21.26
2024-01-31T10:13:34.688Z,20.42
2024-01-31T10:14:26.165Z,20.49
2024-01-31T10:15:17.724Z,20.37
2024-01-31T10:16:09.233Z,18.70
2024-01-31T10:17:00.893Z,20.39
2024-01-31T10:17:54.242Z,20.57
2024-01-31T10:18:45.944Z,19.90
2024-01-31T10:19:37.469Z,20.06
2024-01-31T10:20:29.160Z,20.48
2024-01-31T10:21:21.678Z,20.35
2024-01-31T10:22:13.160Z,20.99
2024-01-31T10:23:04.633Z,19.45
2024-01-31T10:24:00.789Z,20.18
2024-01-31T10:24:52.810Z,20.60
2024-01-31T10:25:44.452Z,20.41
2024-01-31T10:26:36.849Z,20.83
2024-01-31T10:27:28.330Z,21.30
2024-01-31T10:28:21.694Z,21.43
2024-01-31T10:29:13.546Z,22.00
2024-01-31T10:30:08.794Z,21.98
2024-01-31T10:31:00.509Z,21.19
2024-01-31T10:31:54.068Z,20.47
2024-01-31T10:32:46.975Z,20.00
2024-01-31T10:33:40.144Z,21.28
2024-01-31T10:34:44.322Z,20.24
2024-01-31T10:36:24.242Z,21.26
2024-01-31T10:37:57.517Z,22.35
2024-01-31T10:38:51.475Z,21.63
2024-01-31T10:39:46.868Z,21.81
2024-01-31T10:40:41.651Z,21.00
2024-01-31T10:41:35.626Z,21.14
2024-01-31T10:42:27.515Z,21.33
2024-01-31T10:43:19.935Z,20.26
2024-01-31T10:44:15.733Z,19.99
2024-01-31T10:45:08.346Z,19.84
2024-01-31T10:45:59.997Z,20.52
2024-01-31T10:46:51.588Z,21.70
2024-01-31T10:47:45.741Z,19.80
2024-01-31T10:48:39.258Z,20.39
2024-01-31T10:49:31.014Z,20.30
2024-01-31T10:50:22.848Z,21.15
2024-01-31T10:51:19.043Z,19.82
2024-01-31T10:52:18.359Z,19.30
2024-01-31T10:53:12.431Z,19.76
2024-01-31T10:54:07.490Z,18.00
2024-01-31T10:55:04.197Z,17.18
2024-01-31T10:55:59.789Z,17.71
2024-01-31T10:56:53.041Z,18.67
2024-01-31T10:57:46.239Z,16.67
2024-01-31T10:58:38.137Z,15.57
2024-01-31T10:59:38.472Z,15.20
2024-01-31T11:00:30.385Z,14.96
2024-01-31T11:01:22.256Z,14.69
2024-01-31T11:02:22.800Z,15.12
2024-01-31T11:03:16.740Z,14.45
2024-01-31T11:04:14.756Z,14.31
2024-01-31T11:05:06.490Z,14.41
2024-01-31T11:05:58.059Z,14.58
2024-01-31T11:06:53.448Z,13.42
2024-01-31T11:07:48.774Z,12.94
2024-01-31T11:08:42.296Z,13.12
2024-01-31T11:09:33.852Z,13.20
2024-01-31T11:10:27.697Z,13.56
2024-01-31T11:11:19.950Z,13.34
2024-01-31T11:12:14.398Z,13.48
2024-01-31T11:13:06.203Z,11.89
2024-01-31T11:14:13.078Z,12.02
2024-01-31T11:15:06.269Z,12.22